Airport details for: LZZI (Slovak Republic)

Metar

LZZI 270100Z 03003KT 330V080 9999 -RA OVC055 07/05 Q1009

General details

ICAO: LZZI
IATA: ILZ
Name (city): Zilina
Major:
Country: Slovak Republic
vACC: vACC Slovakia
Description:

Žilina Airport is an airport serving Žilina, Slovakia. It is located near the village of Dolný Hričov, approximately 10 km west of Žilina itself. The airport is used for both international and domestic flights, as well for private flights, amateur sport flights, air ambulance flights and other special flights. It also serves as primary training airport for students of air transport-related majors at the University of Žilina. (wiki)

Scenery links:
FS9 scenery: Download
FSX/P3D scenery: Download
XP scenery: Download
Elevation: 1020 ft.
Transition altitude: 8000 ft.
MSA: 3700 ft.
Latitude: 49.233333
Longitude: 18.613611
LZZI Charts
LZZI Notams
LZZI Online stations

Runways

Number Course Length Elevation Lat Lon ILS ILS freq ILS FAC GP
06 61° 3773ft / 1150 m 1016ft 49.231231 18.606445 108.15 61° 3.5°
24 241° 3773ft / 1150 m 1020ft 49.23565 18.620703 - - 3.0°